sensor_id;sensor_type;location;lat;lon;timestamp;P1;durP1;ratioP1;P2;durP2;ratioP2
68792;SDS011;55778;54.346;10.210;2023-12-20T00:01:18;12.73;;;2.03;;
68792;SDS011;55778;54.346;10.210;2023-12-20T00:03:44;12.10;;;1.13;;
68792;SDS011;55778;54.346;10.210;2023-12-20T00:06:09;6.97;;;1.42;;
68792;SDS011;55778;54.346;10.210;2023-12-20T00:08:35;11.63;;;1.50;;
68792;SDS011;55778;54.346;10.210;2023-12-20T00:11:00;9.85;;;1.23;;
68792;SDS011;55778;54.346;10.210;2023-12-20T00:13:26;16.10;;;1.90;;
68792;SDS011;55778;54.346;10.210;2023-12-20T00:15:51;10.00;;;1.13;;
68792;SDS011;55778;54.346;10.210;2023-12-20T00:18:16;8.32;;;1.63;;
68792;SDS011;55778;54.346;10.210;2023-12-20T00:20:42;8.88;;;1.60;;
68792;SDS011;55778;54.346;10.210;2023-12-20T00:23:07;12.05;;;1.48;;
68792;SDS011;55778;54.346;10.210;2023-12-20T00:25:33;12.48;;;1.50;;
68792;SDS011;55778;54.346;10.210;2023-12-20T00:27:59;9.00;;;1.45;;
68792;SDS011;55778;54.346;10.210;2023-12-20T00:30:25;12.35;;;1.65;;
68792;SDS011;55778;54.346;10.210;2023-12-20T00:32:50;9.07;;;1.38;;
68792;SDS011;55778;54.346;10.210;2023-12-20T00:35:16;7.70;;;1.45;;
68792;SDS011;55778;54.346;10.210;2023-12-20T00:37:42;12.45;;;2.40;;
68792;SDS011;55778;54.346;10.210;2023-12-20T00:40:08;17.05;;;1.70;;
68792;SDS011;55778;54.346;10.210;2023-12-20T00:42:34;7.80;;;1.40;;
68792;SDS011;55778;54.346;10.210;2023-12-20T00:45:03;12.13;;;2.58;;
68792;SDS011;55778;54.346;10.210;2023-12-20T00:47:30;11.27;;;1.65;;
68792;SDS011;55778;54.346;10.210;2023-12-20T00:49:55;14.88;;;1.83;;
68792;SDS011;55778;54.346;10.210;2023-12-20T00:52:21;10.48;;;1.55;;
68792;SDS011;55778;54.346;10.210;2023-12-20T00:54:47;12.02;;;1.70;;
68792;SDS011;55778;54.346;10.210;2023-12-20T00:57:13;10.75;;;1.48;;
68792;SDS011;55778;54.346;10.210;2023-12-20T00:59:39;11.98;;;1.60;;
68792;SDS011;55778;54.346;10.210;2023-12-20T01:02:04;14.10;;;2.40;;
68792;SDS011;55778;54.346;10.210;2023-12-20T01:04:30;10.40;;;1.25;;
68792;SDS011;55778;54.346;10.210;2023-12-20T01:06:55;11.65;;;1.50;;
68792;SDS011;55778;54.346;10.210;2023-12-20T01:09:20;11.70;;;1.70;;
68792;SDS011;55778;54.346;10.210;2023-12-20T01:11:48;13.88;;;2.20;;
68792;SDS011;55778;54.346;10.210;2023-12-20T01:14:14;10.35;;;1.45;;
68792;SDS011;55778;54.346;10.210;2023-12-20T01:16:39;12.60;;;1.80;;
68792;SDS011;55778;54.346;10.210;2023-12-20T01:19:05;10.90;;;1.65;;
68792;SDS011;55778;54.346;10.210;2023-12-20T01:21:30;7.97;;;1.38;;
68792;SDS011;55778;54.346;10.210;2023-12-20T01:23:56;14.23;;;1.63;;
68792;SDS011;55778;54.346;10.210;2023-12-20T01:26:21;11.60;;;1.25;;
68792;SDS011;55778;54.346;10.210;2023-12-20T01:28:46;13.63;;;1.70;;
68792;SDS011;55778;54.346;10.210;2023-12-20T01:31:12;14.77;;;1.85;;
68792;SDS011;55778;54.346;10.210;2023-12-20T01:33:37;7.80;;;1.60;;
68792;SDS011;55778;54.346;10.210;2023-12-20T01:36:03;7.30;;;1.40;;
68792;SDS011;55778;54.346;10.210;2023-12-20T01:38:29;7.07;;;1.40;;
68792;SDS011;55778;54.346;10.210;2023-12-20T01:40:54;16.23;;;2.28;;
68792;SDS011;55778;54.346;10.210;2023-12-20T01:43:19;11.93;;;1.95;;
68792;SDS011;55778;54.346;10.210;2023-12-20T01:45:45;8.10;;;1.85;;
68792;SDS011;55778;54.346;10.210;2023-12-20T01:48:12;17.73;;;2.22;;
68792;SDS011;55778;54.346;10.210;2023-12-20T01:50:38;12.57;;;1.77;;
68792;SDS011;55778;54.346;10.210;2023-12-20T01:53:05;12.65;;;1.50;;
68792;SDS011;55778;54.346;10.210;2023-12-20T01:55:34;11.65;;;2.40;;
68792;SDS011;55778;54.346;10.210;2023-12-20T01:58:01;11.63;;;1.52;;
68792;SDS011;55778;54.346;10.210;2023-12-20T02:00:27;16.05;;;1.83;;
68792;SDS011;55778;54.346;10.210;2023-12-20T02:02:54;11.77;;;1.92;;
68792;SDS011;55778;54.346;10.210;2023-12-20T02:05:20;13.88;;;1.70;;
68792;SDS011;55778;54.346;10.210;2023-12-20T02:07:47;12.45;;;1.77;;
68792;SDS011;55778;54.346;10.210;2023-12-20T02:10:12;11.35;;;1.50;;
68792;SDS011;55778;54.346;10.210;2023-12-20T02:12:38;9.68;;;1.40;;
68792;SDS011;55778;54.346;10.210;2023-12-20T02:15:04;15.50;;;1.60;;
68792;SDS011;55778;54.346;10.210;2023-12-20T02:17:30;9.43;;;1.55;;
68792;SDS011;55778;54.346;10.210;2023-12-20T02:19:56;13.25;;;1.40;;
68792;SDS011;55778;54.346;10.210;2023-12-20T02:22:22;9.82;;;1.17;;
68792;SDS011;55778;54.346;10.210;2023-12-20T02:24:47;11.70;;;1.40;;
68792;SDS011;55778;54.346;10.210;2023-12-20T02:27:12;15.25;;;1.92;;
68792;SDS011;55778;54.346;10.210;2023-12-20T02:29:39;7.82;;;3.13;;
68792;SDS011;55778;54.346;10.210;2023-12-20T02:32:05;10.50;;;1.70;;
68792;SDS011;55778;54.346;10.210;2023-12-20T02:34:30;10.48;;;1.40;;
68792;SDS011;55778;54.346;10.210;2023-12-20T02:36:55;11.48;;;1.40;;
68792;SDS011;55778;54.346;10.210;2023-12-20T02:39:21;12.32;;;1.60;;
68792;SDS011;55778;54.346;10.210;2023-12-20T02:41:47;10.75;;;1.83;;
68792;SDS011;55778;54.346;10.210;2023-12-20T02:44:13;6.60;;;1.17;;
68792;SDS011;55778;54.346;10.210;2023-12-20T02:46:39;11.23;;;1.92;;
68792;SDS011;55778;54.346;10.210;2023-12-20T02:49:04;5.55;;;1.10;;
68792;SDS011;55778;54.346;10.210;2023-12-20T02:51:30;10.35;;;1.38;;
68792;SDS011;55778;54.346;10.210;2023-12-20T02:53:56;7.25;;;1.50;;
68792;SDS011;55778;54.346;10.210;2023-12-20T02:56:21;7.50;;;1.10;;
68792;SDS011;55778;54.346;10.210;2023-12-20T02:58:46;7.18;;;1.23;;
68792;SDS011;55778;54.346;10.210;2023-12-20T03:01:12;8.25;;;1.13;;
68792;SDS011;55778;54.346;10.210;2023-12-20T03:03:37;9.27;;;1.50;;
68792;SDS011;55778;54.346;10.210;2023-12-20T03:06:02;7.28;;;1.52;;
68792;SDS011;55778;54.346;10.210;2023-12-20T03:08:28;9.23;;;1.35;;
68792;SDS011;55778;54.346;10.210;2023-12-20T03:10:53;5.10;;;1.20;;
68792;SDS011;55778;54.346;10.210;2023-12-20T03:13:19;4.90;;;0.98;;
68792;SDS011;55778;54.346;10.210;2023-12-20T03:15:45;4.32;;;1.10;;
68792;SDS011;55778;54.346;10.210;2023-12-20T03:18:10;6.28;;;1.10;;
68792;SDS011;55778;54.346;10.210;2023-12-20T03:20:36;6.93;;;1.33;;
68792;SDS011;55778;54.346;10.210;2023-12-20T03:23:01;8.07;;;1.40;;
68792;SDS011;55778;54.346;10.210;2023-12-20T03:25:27;4.90;;;1.30;;
68792;SDS011;55778;54.346;10.210;2023-12-20T03:27:52;9.23;;;1.52;;
68792;SDS011;55778;54.346;10.210;2023-12-20T03:30:18;5.65;;;1.20;;
68792;SDS011;55778;54.346;10.210;2023-12-20T03:32:43;7.80;;;1.73;;
68792;SDS011;55778;54.346;10.210;2023-12-20T03:35:09;8.55;;;1.52;;
68792;SDS011;55778;54.346;10.210;2023-12-20T03:37:35;12.85;;;1.83;;
68792;SDS011;55778;54.346;10.210;2023-12-20T03:40:00;10.60;;;2.00;;
68792;SDS011;55778;54.346;10.210;2023-12-20T03:42:26;9.32;;;2.05;;
68792;SDS011;55778;54.346;10.210;2023-12-20T03:44:51;6.10;;;1.60;;
68792;SDS011;55778;54.346;10.210;2023-12-20T03:47:17;8.73;;;2.17;;
68792;SDS011;55778;54.346;10.210;2023-12-20T03:49:42;10.93;;;2.17;;
68792;SDS011;55778;54.346;10.210;2023-12-20T03:52:07;8.60;;;1.90;;
68792;SDS011;55778;54.346;10.210;2023-12-20T03:54:34;6.03;;;1.65;;
68792;SDS011;55778;54.346;10.210;2023-12-20T03:57:00;9.43;;;1.70;;
68792;SDS011;55778;54.346;10.210;2023-12-20T03:59:25;9.02;;;2.33;;
68792;SDS011;55778;54.346;10.210;2023-12-20T04:01:50;10.85;;;1.55;;
68792;SDS011;55778;54.346;10.210;2023-12-20T04:04:16;9.45;;;1.73;;
68792;SDS011;55778;54.346;10.210;2023-12-20T04:06:41;7.93;;;1.42;;
68792;SDS011;55778;54.346;10.210;2023-12-20T04:09:07;8.82;;;1.40;;
68792;SDS011;55778;54.346;10.210;2023-12-20T04:11:34;5.70;;;1.20;;
68792;SDS011;55778;54.346;10.210;2023-12-20T04:13:59;10.30;;;1.67;;
68792;SDS011;55778;54.346;10.210;2023-12-20T04:16:25;7.80;;;1.58;;
68792;SDS011;55778;54.346;10.210;2023-12-20T04:18:51;9.35;;;1.27;;
68792;SDS011;55778;54.346;10.210;2023-12-20T04:21:16;10.35;;;1.38;;
68792;SDS011;55778;54.346;10.210;2023-12-20T04:23:43;9.43;;;1.30;;
68792;SDS011;55778;54.346;10.210;2023-12-20T04:26:08;6.88;;;1.40;;
68792;SDS011;55778;54.346;10.210;2023-12-20T04:28:33;9.50;;;1.27;;
68792;SDS011;55778;54.346;10.210;2023-12-20T04:30:59;7.63;;;1.02;;
68792;SDS011;55778;54.346;10.210;2023-12-20T04:33:24;6.25;;;1.48;;
68792;SDS011;55778;54.346;10.210;2023-12-20T04:35:49;15.02;;;2.15;;
68792;SDS011;55778;54.346;10.210;2023-12-20T04:38:15;7.85;;;1.33;;
68792;SDS011;55778;54.346;10.210;2023-12-20T04:40:40;11.13;;;1.50;;
68792;SDS011;55778;54.346;10.210;2023-12-20T04:43:06;7.75;;;1.10;;
68792;SDS011;55778;54.346;10.210;2023-12-20T04:45:32;9.85;;;1.17;;
68792;SDS011;55778;54.346;10.210;2023-12-20T04:47:58;7.10;;;1.30;;
68792;SDS011;55778;54.346;10.210;2023-12-20T04:50:23;8.18;;;1.30;;
68792;SDS011;55778;54.346;10.210;2023-12-20T04:52:48;9.80;;;1.42;;
68792;SDS011;55778;54.346;10.210;2023-12-20T04:55:14;5.65;;;1.00;;
68792;SDS011;55778;54.346;10.210;2023-12-20T04:57:39;6.45;;;1.05;;
68792;SDS011;55778;54.346;10.210;2023-12-20T05:00:05;5.28;;;1.10;;
68792;SDS011;55778;54.346;10.210;2023-12-20T05:02:33;7.43;;;1.13;;
68792;SDS011;55778;54.346;10.210;2023-12-20T05:04:58;9.15;;;1.30;;
68792;SDS011;55778;54.346;10.210;2023-12-20T05:07:24;8.30;;;0.98;;
68792;SDS011;55778;54.346;10.210;2023-12-20T05:09:49;8.07;;;1.92;;
68792;SDS011;55778;54.346;10.210;2023-12-20T05:12:14;9.50;;;1.13;;
68792;SDS011;55778;54.346;10.210;2023-12-20T05:14:40;7.47;;;1.30;;
68792;SDS011;55778;54.346;10.210;2023-12-20T05:17:05;8.43;;;1.90;;
68792;SDS011;55778;54.346;10.210;2023-12-20T05:19:31;15.15;;;1.60;;
68792;SDS011;55778;54.346;10.210;2023-12-20T05:22:00;13.85;;;1.85;;
68792;SDS011;55778;54.346;10.210;2023-12-20T05:24:26;8.98;;;1.92;;
68792;SDS011;55778;54.346;10.210;2023-12-20T05:26:51;12.95;;;2.05;;
68792;SDS011;55778;54.346;10.210;2023-12-20T05:29:17;11.30;;;1.75;;
68792;SDS011;55778;54.346;10.210;2023-12-20T05:31:42;14.50;;;2.30;;
68792;SDS011;55778;54.346;10.210;2023-12-20T05:34:08;7.45;;;1.40;;
68792;SDS011;55778;54.346;10.210;2023-12-20T05:36:33;11.00;;;1.45;;
68792;SDS011;55778;54.346;10.210;2023-12-20T05:38:58;11.05;;;1.70;;
68792;SDS011;55778;54.346;10.210;2023-12-20T05:41:24;13.50;;;1.63;;
68792;SDS011;55778;54.346;10.210;2023-12-20T05:43:49;12.25;;;1.77;;
68792;SDS011;55778;54.346;10.210;2023-12-20T05:46:14;11.95;;;1.50;;
68792;SDS011;55778;54.346;10.210;2023-12-20T05:48:40;10.57;;;1.42;;
68792;SDS011;55778;54.346;10.210;2023-12-20T05:51:05;12.63;;;1.70;;
68792;SDS011;55778;54.346;10.210;2023-12-20T05:53:31;11.73;;;2.35;;
68792;SDS011;55778;54.346;10.210;2023-12-20T05:55:56;14.05;;;1.95;;
68792;SDS011;55778;54.346;10.210;2023-12-20T05:58:21;12.13;;;2.05;;
68792;SDS011;55778;54.346;10.210;2023-12-20T06:00:47;11.57;;;1.58;;
68792;SDS011;55778;54.346;10.210;2023-12-20T06:03:13;9.80;;;1.58;;
68792;SDS011;55778;54.346;10.210;2023-12-20T06:05:39;12.18;;;2.03;;
68792;SDS011;55778;54.346;10.210;2023-12-20T06:08:04;14.48;;;2.53;;
68792;SDS011;55778;54.346;10.210;2023-12-20T06:10:30;12.13;;;1.80;;
68792;SDS011;55778;54.346;10.210;2023-12-20T06:12:55;14.98;;;2.33;;
68792;SDS011;55778;54.346;10.210;2023-12-20T06:15:22;17.77;;;2.35;;
68792;SDS011;55778;54.346;10.210;2023-12-20T06:17:48;11.45;;;1.90;;
68792;SDS011;55778;54.346;10.210;2023-12-20T06:20:13;11.02;;;2.10;;
68792;SDS011;55778;54.346;10.210;2023-12-20T06:22:39;12.00;;;2.40;;
68792;SDS011;55778;54.346;10.210;2023-12-20T06:25:04;10.43;;;1.88;;
68792;SDS011;55778;54.346;10.210;2023-12-20T06:27:30;9.77;;;2.42;;
68792;SDS011;55778;54.346;10.210;2023-12-20T06:29:57;13.43;;;2.30;;
68792;SDS011;55778;54.346;10.210;2023-12-20T06:32:23;12.98;;;2.20;;
68792;SDS011;55778;54.346;10.210;2023-12-20T06:34:49;15.57;;;2.30;;
68792;SDS011;55778;54.346;10.210;2023-12-20T06:37:14;15.77;;;2.97;;
68792;SDS011;55778;54.346;10.210;2023-12-20T06:39:40;16.02;;;2.72;;
68792;SDS011;55778;54.346;10.210;2023-12-20T06:42:06;13.80;;;2.25;;
68792;SDS011;55778;54.346;10.210;2023-12-20T06:44:31;11.55;;;1.55;;
68792;SDS011;55778;54.346;10.210;2023-12-20T06:46:57;12.23;;;1.77;;
68792;SDS011;55778;54.346;10.210;2023-12-20T06:49:22;8.68;;;1.50;;
68792;SDS011;55778;54.346;10.210;2023-12-20T06:51:48;6.05;;;1.30;;
68792;SDS011;55778;54.346;10.210;2023-12-20T06:54:13;8.07;;;1.80;;
68792;SDS011;55778;54.346;10.210;2023-12-20T06:56:39;7.65;;;1.52;;
68792;SDS011;55778;54.346;10.210;2023-12-20T06:59:04;7.88;;;1.67;;
68792;SDS011;55778;54.346;10.210;2023-12-20T07:01:30;10.82;;;1.30;;
68792;SDS011;55778;54.346;10.210;2023-12-20T07:03:55;15.18;;;1.27;;
68792;SDS011;55778;54.346;10.210;2023-12-20T07:06:20;12.65;;;1.80;;
68792;SDS011;55778;54.346;10.210;2023-12-20T07:08:46;10.10;;;1.60;;
68792;SDS011;55778;54.346;10.210;2023-12-20T07:11:11;14.27;;;2.20;;
68792;SDS011;55778;54.346;10.210;2023-12-20T07:13:37;11.18;;;1.77;;
68792;SDS011;55778;54.346;10.210;2023-12-20T07:16:02;11.30;;;1.88;;
68792;SDS011;55778;54.346;10.210;2023-12-20T07:18:28;16.55;;;2.17;;
68792;SDS011;55778;54.346;10.210;2023-12-20T07:20:54;17.92;;;2.50;;
68792;SDS011;55778;54.346;10.210;2023-12-20T07:23:20;16.40;;;2.10;;
68792;SDS011;55778;54.346;10.210;2023-12-20T07:25:46;16.25;;;2.00;;
68792;SDS011;55778;54.346;10.210;2023-12-20T07:28:11;17.98;;;2.63;;
68792;SDS011;55778;54.346;10.210;2023-12-20T07:30:37;17.30;;;2.88;;
68792;SDS011;55778;54.346;10.210;2023-12-20T07:33:02;12.10;;;2.13;;
68792;SDS011;55778;54.346;10.210;2023-12-20T07:35:28;14.02;;;2.53;;
68792;SDS011;55778;54.346;10.210;2023-12-20T07:37:53;14.63;;;2.42;;
68792;SDS011;55778;54.346;10.210;2023-12-20T07:40:19;16.33;;;2.13;;
68792;SDS011;55778;54.346;10.210;2023-12-20T07:42:44;18.58;;;2.03;;
68792;SDS011;55778;54.346;10.210;2023-12-20T07:45:09;15.00;;;2.50;;
68792;SDS011;55778;54.346;10.210;2023-12-20T07:47:37;12.27;;;2.65;;
68792;SDS011;55778;54.346;10.210;2023-12-20T07:50:03;19.08;;;2.22;;
68792;SDS011;55778;54.346;10.210;2023-12-20T07:52:29;11.88;;;1.80;;
68792;SDS011;55778;54.346;10.210;2023-12-20T07:54:55;16.95;;;1.92;;
68792;SDS011;55778;54.346;10.210;2023-12-20T07:57:20;13.10;;;2.30;;
68792;SDS011;55778;54.346;10.210;2023-12-20T07:59:46;18.75;;;2.17;;
68792;SDS011;55778;54.346;10.210;2023-12-20T08:02:11;20.60;;;2.17;;
68792;SDS011;55778;54.346;10.210;2023-12-20T08:04:37;16.85;;;2.20;;
68792;SDS011;55778;54.346;10.210;2023-12-20T08:07:03;15.80;;;2.08;;
68792;SDS011;55778;54.346;10.210;2023-12-20T08:09:29;17.40;;;3.00;;
68792;SDS011;55778;54.346;10.210;2023-12-20T08:11:54;12.35;;;2.10;;
68792;SDS011;55778;54.346;10.210;2023-12-20T08:14:20;11.32;;;1.90;;
68792;SDS011;55778;54.346;10.210;2023-12-20T08:16:46;16.52;;;2.45;;
68792;SDS011;55778;54.346;10.210;2023-12-20T08:19:12;14.75;;;2.35;;
68792;SDS011;55778;54.346;10.210;2023-12-20T08:21:38;12.93;;;1.52;;
68792;SDS011;55778;54.346;10.210;2023-12-20T08:24:04;12.10;;;1.90;;
68792;SDS011;55778;54.346;10.210;2023-12-20T08:26:29;10.40;;;1.77;;
68792;SDS011;55778;54.346;10.210;2023-12-20T08:28:55;9.00;;;2.45;;
68792;SDS011;55778;54.346;10.210;2023-12-20T08:31:20;8.70;;;1.50;;
68792;SDS011;55778;54.346;10.210;2023-12-20T08:33:46;13.90;;;1.92;;
68792;SDS011;55778;54.346;10.210;2023-12-20T08:36:13;9.35;;;1.48;;
68792;SDS011;55778;54.346;10.210;2023-12-20T08:38:38;11.05;;;1.48;;
68792;SDS011;55778;54.346;10.210;2023-12-20T08:41:04;10.52;;;1.60;;
68792;SDS011;55778;54.346;10.210;2023-12-20T08:43:39;6.68;;;1.42;;
68792;SDS011;55778;54.346;10.210;2023-12-20T08:46:05;2.22;;;0.93;;
68792;SDS011;55778;54.346;10.210;2023-12-20T08:48:31;4.50;;;0.80;;
68792;SDS011;55778;54.346;10.210;2023-12-20T08:50:56;3.88;;;0.70;;
68792;SDS011;55778;54.346;10.210;2023-12-20T08:53:21;3.17;;;0.70;;
68792;SDS011;55778;54.346;10.210;2023-12-20T08:55:47;3.40;;;0.60;;
68792;SDS011;55778;54.346;10.210;2023-12-20T08:58:13;3.38;;;0.80;;
68792;SDS011;55778;54.346;10.210;2023-12-20T09:00:39;1.95;;;0.73;;
68792;SDS011;55778;54.346;10.210;2023-12-20T09:03:04;2.35;;;0.95;;
68792;SDS011;55778;54.346;10.210;2023-12-20T09:05:29;2.83;;;0.60;;
68792;SDS011;55778;54.346;10.210;2023-12-20T09:07:55;3.53;;;0.60;;
68792;SDS011;55778;54.346;10.210;2023-12-20T09:10:20;7.00;;;1.77;;
68792;SDS011;55778;54.346;10.210;2023-12-20T09:12:50;3.28;;;0.80;;
68792;SDS011;55778;54.346;10.210;2023-12-20T09:15:19;2.05;;;0.50;;
68792;SDS011;55778;54.346;10.210;2023-12-20T09:17:44;4.60;;;0.60;;
68792;SDS011;55778;54.346;10.210;2023-12-20T09:20:10;7.00;;;0.90;;
68792;SDS011;55778;54.346;10.210;2023-12-20T09:22:35;2.45;;;0.80;;
68792;SDS011;55778;54.346;10.210;2023-12-20T09:25:03;4.40;;;0.68;;
68792;SDS011;55778;54.346;10.210;2023-12-20T09:27:29;3.83;;;0.68;;
68792;SDS011;55778;54.346;10.210;2023-12-20T09:29:54;5.07;;;0.70;;
68792;SDS011;55778;54.346;10.210;2023-12-20T09:32:19;2.80;;;0.77;;
68792;SDS011;55778;54.346;10.210;2023-12-20T09:34:47;2.28;;;0.75;;
68792;SDS011;55778;54.346;10.210;2023-12-20T09:37:13;3.53;;;0.90;;
68792;SDS011;55778;54.346;10.210;2023-12-20T09:39:39;5.50;;;0.90;;
68792;SDS011;55778;54.346;10.210;2023-12-20T09:42:04;3.10;;;0.80;;
68792;SDS011;55778;54.346;10.210;2023-12-20T09:44:31;3.67;;;0.75;;
68792;SDS011;55778;54.346;10.210;2023-12-20T09:46:58;5.93;;;1.10;;
68792;SDS011;55778;54.346;10.210;2023-12-20T09:49:25;7.07;;;1.45;;
68792;SDS011;55778;54.346;10.210;2023-12-20T09:51:53;6.93;;;1.73;;
68792;SDS011;55778;54.346;10.210;2023-12-20T09:54:19;9.57;;;1.33;;
68792;SDS011;55778;54.346;10.210;2023-12-20T09:56:45;3.92;;;1.20;;
68792;SDS011;55778;54.346;10.210;2023-12-20T09:59:11;5.18;;;0.80;;
68792;SDS011;55778;54.346;10.210;2023-12-20T10:01:38;5.28;;;1.00;;
68792;SDS011;55778;54.346;10.210;2023-12-20T10:04:08;3.53;;;0.60;;
68792;SDS011;55778;54.346;10.210;2023-12-20T10:06:46;4.35;;;0.98;;
68792;SDS011;55778;54.346;10.210;2023-12-20T10:09:12;5.63;;;0.65;;
68792;SDS011;55778;54.346;10.210;2023-12-20T10:11:38;3.90;;;0.80;;
68792;SDS011;55778;54.346;10.210;2023-12-20T10:14:04;4.75;;;1.00;;
68792;SDS011;55778;54.346;10.210;2023-12-20T10:16:33;7.45;;;1.42;;
68792;SDS011;55778;54.346;10.210;2023-12-20T10:18:59;7.28;;;0.93;;
68792;SDS011;55778;54.346;10.210;2023-12-20T10:21:26;6.90;;;1.20;;
68792;SDS011;55778;54.346;10.210;2023-12-20T10:23:52;6.15;;;1.40;;
68792;SDS011;55778;54.346;10.210;2023-12-20T10:26:19;8.32;;;1.30;;
68792;SDS011;55778;54.346;10.210;2023-12-20T10:28:46;8.38;;;0.98;;
68792;SDS011;55778;54.346;10.210;2023-12-20T10:31:28;8.73;;;1.13;;
68792;SDS011;55778;54.346;10.210;2023-12-20T10:33:58;8.77;;;1.30;;
68792;SDS011;55778;54.346;10.210;2023-12-20T10:36:24;6.95;;;1.08;;
68792;SDS011;55778;54.346;10.210;2023-12-20T10:38:54;5.32;;;1.10;;
68792;SDS011;55778;54.346;10.210;2023-12-20T10:41:29;4.38;;;0.90;;
68792;SDS011;55778;54.346;10.210;2023-12-20T10:43:59;4.25;;;0.90;;
68792;SDS011;55778;54.346;10.210;2023-12-20T10:46:30;5.95;;;1.35;;
68792;SDS011;55778;54.346;10.210;2023-12-20T10:48:57;6.30;;;0.80;;
68792;SDS011;55778;54.346;10.210;2023-12-20T10:51:23;3.75;;;0.70;;
68792;SDS011;55778;54.346;10.210;2023-12-20T10:53:52;7.22;;;1.00;;
68792;SDS011;55778;54.346;10.210;2023-12-20T10:56:18;6.90;;;1.30;;
68792;SDS011;55778;54.346;10.210;2023-12-20T10:58:45;5.22;;;1.13;;
68792;SDS011;55778;54.346;10.210;2023-12-20T11:03:43;8.93;;;1.80;;
68792;SDS011;55778;54.346;10.210;2023-12-20T11:14:46;8.60;;;1.45;;
68792;SDS011;55778;54.346;10.210;2023-12-20T11:17:13;6.95;;;1.30;;
68792;SDS011;55778;54.346;10.210;2023-12-20T11:22:25;7.25;;;0.80;;
68792;SDS011;55778;54.346;10.210;2023-12-20T11:24:54;5.57;;;0.77;;
68792;SDS011;55778;54.346;10.210;2023-12-20T11:27:28;5.45;;;1.08;;
68792;SDS011;55778;54.346;10.210;2023-12-20T11:29:56;11.93;;;1.10;;
68792;SDS011;55778;54.346;10.210;2023-12-20T11:34:50;12.65;;;3.97;;
68792;SDS011;55778;54.346;10.210;2023-12-20T11:37:20;13.50;;;1.45;;
68792;SDS011;55778;54.346;10.210;2023-12-20T11:39:54;6.43;;;1.40;;
68792;SDS011;55778;54.346;10.210;2023-12-20T11:42:21;10.25;;;1.38;;
68792;SDS011;55778;54.346;10.210;2023-12-20T11:44:46;5.10;;;1.10;;
68792;SDS011;55778;54.346;10.210;2023-12-20T11:47:12;7.70;;;1.30;;
68792;SDS011;55778;54.346;10.210;2023-12-20T11:49:40;6.88;;;1.40;;
68792;SDS011;55778;54.346;10.210;2023-12-20T11:52:06;4.13;;;1.00;;
68792;SDS011;55778;54.346;10.210;2023-12-20T11:54:31;5.07;;;0.80;;
68792;SDS011;55778;54.346;10.210;2023-12-20T11:56:57;5.68;;;1.50;;
68792;SDS011;55778;54.346;10.210;2023-12-20T11:59:23;4.90;;;1.20;;
68792;SDS011;55778;54.346;10.210;2023-12-20T12:01:48;6.72;;;1.15;;
68792;SDS011;55778;54.346;10.210;2023-12-20T12:04:15;8.00;;;1.48;;
68792;SDS011;55778;54.346;10.210;2023-12-20T12:06:42;5.45;;;1.45;;
68792;SDS011;55778;54.346;10.210;2023-12-20T12:09:08;7.65;;;1.42;;
68792;SDS011;55778;54.346;10.210;2023-12-20T12:11:33;7.50;;;1.10;;
68792;SDS011;55778;54.346;10.210;2023-12-20T12:13:59;6.20;;;1.27;;
68792;SDS011;55778;54.346;10.210;2023-12-20T12:16:25;14.18;;;2.88;;
68792;SDS011;55778;54.346;10.210;2023-12-20T12:18:57;14.63;;;3.10;;
68792;SDS011;55778;54.346;10.210;2023-12-20T12:21:24;14.05;;;4.20;;
68792;SDS011;55778;54.346;10.210;2023-12-20T12:23:49;9.07;;;2.63;;
68792;SDS011;55778;54.346;10.210;2023-12-20T12:26:15;12.98;;;4.78;;
68792;SDS011;55778;54.346;10.210;2023-12-20T12:28:40;7.63;;;1.70;;
68792;SDS011;55778;54.346;10.210;2023-12-20T12:31:06;16.70;;;3.83;;
68792;SDS011;55778;54.346;10.210;2023-12-20T12:33:32;12.15;;;2.65;;
68792;SDS011;55778;54.346;10.210;2023-12-20T12:35:58;9.57;;;2.45;;
68792;SDS011;55778;54.346;10.210;2023-12-20T12:38:24;6.68;;;2.47;;
68792;SDS011;55778;54.346;10.210;2023-12-20T12:40:50;7.43;;;2.58;;
68792;SDS011;55778;54.346;10.210;2023-12-20T12:43:18;6.35;;;2.70;;
68792;SDS011;55778;54.346;10.210;2023-12-20T12:45:43;6.82;;;2.50;;
68792;SDS011;55778;54.346;10.210;2023-12-20T12:48:09;11.18;;;2.40;;
68792;SDS011;55778;54.346;10.210;2023-12-20T12:50:34;14.88;;;2.92;;
68792;SDS011;55778;54.346;10.210;2023-12-20T12:53:00;12.43;;;4.13;;
68792;SDS011;55778;54.346;10.210;2023-12-20T12:55:27;11.38;;;2.85;;
68792;SDS011;55778;54.346;10.210;2023-12-20T12:57:53;8.85;;;2.20;;
68792;SDS011;55778;54.346;10.210;2023-12-20T13:00:21;12.27;;;2.28;;
68792;SDS011;55778;54.346;10.210;2023-12-20T13:02:46;11.05;;;3.22;;
68792;SDS011;55778;54.346;10.210;2023-12-20T13:05:12;11.48;;;2.47;;
68792;SDS011;55778;54.346;10.210;2023-12-20T13:07:38;11.50;;;3.90;;
68792;SDS011;55778;54.346;10.210;2023-12-20T13:10:04;11.55;;;3.67;;
68792;SDS011;55778;54.346;10.210;2023-12-20T13:12:30;11.95;;;3.95;;
68792;SDS011;55778;54.346;10.210;2023-12-20T13:14:57;11.13;;;4.07;;
68792;SDS011;55778;54.346;10.210;2023-12-20T13:17:22;13.13;;;2.60;;
68792;SDS011;55778;54.346;10.210;2023-12-20T13:19:48;17.95;;;4.38;;
68792;SDS011;55778;54.346;10.210;2023-12-20T13:22:14;9.98;;;1.95;;
68792;SDS011;55778;54.346;10.210;2023-12-20T13:24:40;12.23;;;3.47;;
68792;SDS011;55778;54.346;10.210;2023-12-20T13:27:05;12.23;;;3.38;;
68792;SDS011;55778;54.346;10.210;2023-12-20T13:29:31;15.63;;;3.53;;
68792;SDS011;55778;54.346;10.210;2023-12-20T13:31:56;14.75;;;2.83;;
68792;SDS011;55778;54.346;10.210;2023-12-20T13:34:22;16.30;;;3.22;;
68792;SDS011;55778;54.346;10.210;2023-12-20T13:36:48;16.25;;;4.22;;
68792;SDS011;55778;54.346;10.210;2023-12-20T13:39:15;12.63;;;4.07;;
68792;SDS011;55778;54.346;10.210;2023-12-20T13:41:42;17.58;;;4.85;;
68792;SDS011;55778;54.346;10.210;2023-12-20T13:44:07;10.77;;;2.75;;
68792;SDS011;55778;54.346;10.210;2023-12-20T13:46:33;14.75;;;3.40;;
68792;SDS011;55778;54.346;10.210;2023-12-20T13:48:58;12.52;;;3.67;;
68792;SDS011;55778;54.346;10.210;2023-12-20T13:51:24;13.13;;;4.05;;
68792;SDS011;55778;54.346;10.210;2023-12-20T13:53:50;10.95;;;3.35;;
68792;SDS011;55778;54.346;10.210;2023-12-20T13:56:15;12.25;;;3.72;;
68792;SDS011;55778;54.346;10.210;2023-12-20T13:58:41;19.60;;;4.07;;
68792;SDS011;55778;54.346;10.210;2023-12-20T14:01:09;14.15;;;3.63;;
68792;SDS011;55778;54.346;10.210;2023-12-20T14:03:38;14.13;;;3.08;;
68792;SDS011;55778;54.346;10.210;2023-12-20T14:06:03;17.17;;;4.65;;
68792;SDS011;55778;54.346;10.210;2023-12-20T14:08:29;11.00;;;3.13;;
68792;SDS011;55778;54.346;10.210;2023-12-20T14:10:54;15.88;;;5.22;;
68792;SDS011;55778;54.346;10.210;2023-12-20T14:13:20;13.82;;;3.92;;
68792;SDS011;55778;54.346;10.210;2023-12-20T14:15:46;10.20;;;3.70;;
68792;SDS011;55778;54.346;10.210;2023-12-20T14:18:12;9.93;;;3.88;;
68792;SDS011;55778;54.346;10.210;2023-12-20T14:20:40;16.77;;;4.97;;
68792;SDS011;55778;54.346;10.210;2023-12-20T14:23:07;19.38;;;4.63;;
68792;SDS011;55778;54.346;10.210;2023-12-20T14:25:34;17.83;;;3.97;;
68792;SDS011;55778;54.346;10.210;2023-12-20T14:28:03;16.13;;;5.43;;
68792;SDS011;55778;54.346;10.210;2023-12-20T14:30:29;17.38;;;4.55;;
68792;SDS011;55778;54.346;10.210;2023-12-20T14:32:54;11.20;;;3.35;;
68792;SDS011;55778;54.346;10.210;2023-12-20T14:35:20;12.57;;;4.30;;
68792;SDS011;55778;54.346;10.210;2023-12-20T14:37:45;12.20;;;4.50;;